sensor_id;sensor_type;location;lat;lon;timestamp;P1;durP1;ratioP1;P2;durP2;ratioP2
35074;SDS011;21260;34.984;32.490;2022-11-20T00:03:46;3.50;;;1.70;;
35074;SDS011;21260;34.984;32.490;2022-11-20T00:06:14;2.07;;;1.60;;
35074;SDS011;21260;34.984;32.490;2022-11-20T00:08:43;5.50;;;1.80;;
35074;SDS011;21260;34.984;32.490;2022-11-20T00:11:15;3.70;;;1.40;;
35074;SDS011;21260;34.984;32.490;2022-11-20T00:13:45;4.63;;;1.80;;
35074;SDS011;21260;34.984;32.490;2022-11-20T00:16:16;4.63;;;1.70;;
35074;SDS011;21260;34.984;32.490;2022-11-20T00:18:47;2.27;;;1.50;;
35074;SDS011;21260;34.984;32.490;2022-11-20T00:21:19;4.87;;;1.70;;
35074;SDS011;21260;34.984;32.490;2022-11-20T00:23:54;3.90;;;1.60;;
35074;SDS011;21260;34.984;32.490;2022-11-20T00:26:23;2.73;;;1.40;;
35074;SDS011;21260;34.984;32.490;2022-11-20T00:28:53;2.93;;;1.50;;
35074;SDS011;21260;34.984;32.490;2022-11-20T00:31:25;4.43;;;1.57;;
35074;SDS011;21260;34.984;32.490;2022-11-20T00:33:53;2.90;;;1.50;;
35074;SDS011;21260;34.984;32.490;2022-11-20T00:36:20;5.30;;;1.93;;
35074;SDS011;21260;34.984;32.490;2022-11-20T00:38:55;6.50;;;1.73;;
35074;SDS011;21260;34.984;32.490;2022-11-20T00:41:23;7.33;;;1.77;;
35074;SDS011;21260;34.984;32.490;2022-11-20T00:43:53;3.80;;;1.77;;
35074;SDS011;21260;34.984;32.490;2022-11-20T00:46:22;3.03;;;1.40;;
35074;SDS011;21260;34.984;32.490;2022-11-20T00:48:50;5.50;;;1.87;;
35074;SDS011;21260;34.984;32.490;2022-11-20T00:51:19;5.47;;;1.70;;
35074;SDS011;21260;34.984;32.490;2022-11-20T00:53:47;5.73;;;1.70;;
35074;SDS011;21260;34.984;32.490;2022-11-20T00:56:15;8.50;;;1.90;;
35074;SDS011;21260;34.984;32.490;2022-11-20T00:58:45;3.00;;;1.67;;
35074;SDS011;21260;34.984;32.490;2022-11-20T01:01:19;6.90;;;1.87;;
35074;SDS011;21260;34.984;32.490;2022-11-20T01:03:51;3.03;;;1.67;;
35074;SDS011;21260;34.984;32.490;2022-11-20T01:06:21;2.87;;;1.60;;
35074;SDS011;21260;34.984;32.490;2022-11-20T01:08:53;8.23;;;1.90;;
35074;SDS011;21260;34.984;32.490;2022-11-20T01:11:28;4.53;;;1.50;;
35074;SDS011;21260;34.984;32.490;2022-11-20T01:13:58;4.57;;;1.60;;
35074;SDS011;21260;34.984;32.490;2022-11-20T01:16:37;3.03;;;1.80;;
35074;SDS011;21260;34.984;32.490;2022-11-20T01:19:07;3.67;;;1.50;;
35074;SDS011;21260;34.984;32.490;2022-11-20T01:21:39;3.60;;;1.60;;
35074;SDS011;21260;34.984;32.490;2022-11-20T01:24:10;3.53;;;1.87;;
35074;SDS011;21260;34.984;32.490;2022-11-20T01:26:40;2.97;;;1.87;;
35074;SDS011;21260;34.984;32.490;2022-11-20T01:29:16;4.30;;;1.77;;
35074;SDS011;21260;34.984;32.490;2022-11-20T01:31:49;5.03;;;1.80;;
35074;SDS011;21260;34.984;32.490;2022-11-20T01:34:18;4.30;;;1.60;;
35074;SDS011;21260;34.984;32.490;2022-11-20T01:36:47;3.60;;;1.73;;
35074;SDS011;21260;34.984;32.490;2022-11-20T01:41:47;6.50;;;1.80;;
35074;SDS011;21260;34.984;32.490;2022-11-20T01:47:37;4.50;;;1.57;;
35074;SDS011;21260;34.984;32.490;2022-11-20T01:50:16;3.83;;;1.60;;
35074;SDS011;21260;34.984;32.490;2022-11-20T01:52:55;2.73;;;1.77;;
35074;SDS011;21260;34.984;32.490;2022-11-20T01:55:28;4.07;;;1.80;;
35074;SDS011;21260;34.984;32.490;2022-11-20T01:58:00;3.13;;;1.60;;
35074;SDS011;21260;34.984;32.490;2022-11-20T02:00:29;2.47;;;1.33;;
35074;SDS011;21260;34.984;32.490;2022-11-20T02:03:01;4.07;;;1.33;;
35074;SDS011;21260;34.984;32.490;2022-11-20T02:08:21;2.37;;;1.50;;
35074;SDS011;21260;34.984;32.490;2022-11-20T02:10:49;5.47;;;2.00;;
35074;SDS011;21260;34.984;32.490;2022-11-20T02:13:15;4.97;;;2.33;;
35074;SDS011;21260;34.984;32.490;2022-11-20T02:16:01;6.23;;;1.80;;
35074;SDS011;21260;34.984;32.490;2022-11-20T02:18:29;6.20;;;1.50;;
35074;SDS011;21260;34.984;32.490;2022-11-20T02:20:58;8.00;;;1.97;;
35074;SDS011;21260;34.984;32.490;2022-11-20T02:26:23;4.47;;;2.00;;
35074;SDS011;21260;34.984;32.490;2022-11-20T02:28:51;3.83;;;1.67;;
35074;SDS011;21260;34.984;32.490;2022-11-20T02:31:18;4.73;;;2.03;;
35074;SDS011;21260;34.984;32.490;2022-11-20T02:33:44;5.72;;;2.10;;
35074;SDS011;21260;34.984;32.490;2022-11-20T02:36:11;3.90;;;1.87;;
35074;SDS011;21260;34.984;32.490;2022-11-20T02:38:41;4.70;;;1.60;;
35074;SDS011;21260;34.984;32.490;2022-11-20T02:41:10;10.73;;;1.73;;
35074;SDS011;21260;34.984;32.490;2022-11-20T02:43:36;2.83;;;1.70;;
35074;SDS011;21260;34.984;32.490;2022-11-20T02:46:02;7.60;;;1.90;;
35074;SDS011;21260;34.984;32.490;2022-11-20T02:48:31;5.27;;;1.80;;
35074;SDS011;21260;34.984;32.490;2022-11-20T02:50:59;4.73;;;1.63;;
35074;SDS011;21260;34.984;32.490;2022-11-20T02:53:25;3.33;;;1.90;;
35074;SDS011;21260;34.984;32.490;2022-11-20T02:55:51;1.97;;;1.63;;
35074;SDS011;21260;34.984;32.490;2022-11-20T02:58:18;6.30;;;1.90;;
35074;SDS011;21260;34.984;32.490;2022-11-20T03:00:44;5.57;;;1.93;;
35074;SDS011;21260;34.984;32.490;2022-11-20T03:03:11;3.20;;;1.73;;
35074;SDS011;21260;34.984;32.490;2022-11-20T03:05:38;6.38;;;2.13;;
35074;SDS011;21260;34.984;32.490;2022-11-20T03:08:05;3.77;;;1.70;;
35074;SDS011;21260;34.984;32.490;2022-11-20T03:10:33;4.33;;;1.87;;
35074;SDS011;21260;34.984;32.490;2022-11-20T03:12:59;5.60;;;1.90;;
35074;SDS011;21260;34.984;32.490;2022-11-20T03:15:27;2.83;;;1.87;;
35074;SDS011;21260;34.984;32.490;2022-11-20T03:17:54;4.70;;;1.93;;
35074;SDS011;21260;34.984;32.490;2022-11-20T03:20:21;7.03;;;2.30;;
35074;SDS011;21260;34.984;32.490;2022-11-20T03:22:49;4.80;;;1.90;;
35074;SDS011;21260;34.984;32.490;2022-11-20T03:25:20;4.97;;;2.10;;
35074;SDS011;21260;34.984;32.490;2022-11-20T03:27:48;4.30;;;2.00;;
35074;SDS011;21260;34.984;32.490;2022-11-20T03:30:14;5.67;;;1.77;;
35074;SDS011;21260;34.984;32.490;2022-11-20T03:32:41;3.20;;;2.00;;
35074;SDS011;21260;34.984;32.490;2022-11-20T03:35:08;4.20;;;1.70;;
35074;SDS011;21260;34.984;32.490;2022-11-20T03:37:35;6.43;;;1.70;;
35074;SDS011;21260;34.984;32.490;2022-11-20T03:40:01;3.13;;;1.70;;
35074;SDS011;21260;34.984;32.490;2022-11-20T03:42:28;3.37;;;1.73;;
35074;SDS011;21260;34.984;32.490;2022-11-20T03:45:10;4.37;;;1.50;;
35074;SDS011;21260;34.984;32.490;2022-11-20T03:47:41;3.90;;;1.97;;
35074;SDS011;21260;34.984;32.490;2022-11-20T03:50:10;4.63;;;1.57;;
35074;SDS011;21260;34.984;32.490;2022-11-20T03:52:39;2.57;;;1.70;;
35074;SDS011;21260;34.984;32.490;2022-11-20T03:55:06;2.17;;;1.53;;
35074;SDS011;21260;34.984;32.490;2022-11-20T03:57:33;3.57;;;1.70;;
35074;SDS011;21260;34.984;32.490;2022-11-20T04:00:00;7.13;;;1.80;;
35074;SDS011;21260;34.984;32.490;2022-11-20T04:02:26;8.23;;;1.60;;
35074;SDS011;21260;34.984;32.490;2022-11-20T04:04:53;3.90;;;1.60;;
35074;SDS011;21260;34.984;32.490;2022-11-20T04:07:20;4.67;;;1.80;;
35074;SDS011;21260;34.984;32.490;2022-11-20T04:09:46;3.60;;;1.70;;
35074;SDS011;21260;34.984;32.490;2022-11-20T04:12:13;4.63;;;1.50;;
35074;SDS011;21260;34.984;32.490;2022-11-20T04:14:39;5.30;;;1.80;;
35074;SDS011;21260;34.984;32.490;2022-11-20T04:17:05;2.40;;;1.47;;
35074;SDS011;21260;34.984;32.490;2022-11-20T04:19:31;3.73;;;1.40;;
35074;SDS011;21260;34.984;32.490;2022-11-20T04:21:58;5.43;;;2.00;;
35074;SDS011;21260;34.984;32.490;2022-11-20T04:24:24;8.27;;;1.97;;
35074;SDS011;21260;34.984;32.490;2022-11-20T04:26:52;5.07;;;1.90;;
35074;SDS011;21260;34.984;32.490;2022-11-20T04:29:18;4.03;;;1.67;;
35074;SDS011;21260;34.984;32.490;2022-11-20T04:31:44;4.20;;;1.70;;
35074;SDS011;21260;34.984;32.490;2022-11-20T04:34:11;3.13;;;1.67;;
35074;SDS011;21260;34.984;32.490;2022-11-20T04:36:38;4.00;;;2.10;;
35074;SDS011;21260;34.984;32.490;2022-11-20T04:39:05;4.90;;;1.70;;
35074;SDS011;21260;34.984;32.490;2022-11-20T04:41:33;6.60;;;1.80;;
35074;SDS011;21260;34.984;32.490;2022-11-20T04:44:01;2.53;;;1.43;;
35074;SDS011;21260;34.984;32.490;2022-11-20T04:46:35;6.40;;;1.60;;
35074;SDS011;21260;34.984;32.490;2022-11-20T04:49:07;5.00;;;1.50;;
35074;SDS011;21260;34.984;32.490;2022-11-20T04:51:33;4.90;;;1.73;;
35074;SDS011;21260;34.984;32.490;2022-11-20T04:54:00;7.00;;;1.60;;
35074;SDS011;21260;34.984;32.490;2022-11-20T04:56:26;2.30;;;1.40;;
35074;SDS011;21260;34.984;32.490;2022-11-20T04:58:53;3.30;;;1.60;;
35074;SDS011;21260;34.984;32.490;2022-11-20T05:01:21;4.53;;;1.50;;
35074;SDS011;21260;34.984;32.490;2022-11-20T05:03:49;2.53;;;1.60;;
35074;SDS011;21260;34.984;32.490;2022-11-20T05:06:17;8.90;;;2.17;;
35074;SDS011;21260;34.984;32.490;2022-11-20T05:08:45;4.60;;;1.60;;
35074;SDS011;21260;34.984;32.490;2022-11-20T05:11:13;5.43;;;1.77;;
35074;SDS011;21260;34.984;32.490;2022-11-20T05:13:45;3.27;;;1.50;;
35074;SDS011;21260;34.984;32.490;2022-11-20T05:16:14;6.87;;;1.90;;
35074;SDS011;21260;34.984;32.490;2022-11-20T05:18:46;11.37;;;2.50;;
35074;SDS011;21260;34.984;32.490;2022-11-20T05:21:16;7.03;;;1.80;;
35074;SDS011;21260;34.984;32.490;2022-11-20T05:23:43;7.73;;;2.50;;
35074;SDS011;21260;34.984;32.490;2022-11-20T05:26:15;3.33;;;1.63;;
35074;SDS011;21260;34.984;32.490;2022-11-20T05:28:45;4.37;;;1.77;;
35074;SDS011;21260;34.984;32.490;2022-11-20T05:31:15;5.40;;;1.50;;
35074;SDS011;21260;34.984;32.490;2022-11-20T05:33:48;4.13;;;1.70;;
35074;SDS011;21260;34.984;32.490;2022-11-20T05:36:15;3.10;;;1.77;;
35074;SDS011;21260;34.984;32.490;2022-11-20T05:38:42;3.50;;;1.60;;
35074;SDS011;21260;34.984;32.490;2022-11-20T05:41:13;2.60;;;1.50;;
35074;SDS011;21260;34.984;32.490;2022-11-20T05:43:44;3.00;;;1.60;;
35074;SDS011;21260;34.984;32.490;2022-11-20T05:46:14;3.57;;;1.87;;
35074;SDS011;21260;34.984;32.490;2022-11-20T05:48:44;5.17;;;1.90;;
35074;SDS011;21260;34.984;32.490;2022-11-20T05:51:11;4.33;;;1.63;;
35074;SDS011;21260;34.984;32.490;2022-11-20T05:53:42;1.93;;;1.63;;
35074;SDS011;21260;34.984;32.490;2022-11-20T05:56:10;5.07;;;1.67;;
35074;SDS011;21260;34.984;32.490;2022-11-20T05:58:43;3.70;;;1.80;;
35074;SDS011;21260;34.984;32.490;2022-11-20T06:01:13;2.27;;;1.50;;
35074;SDS011;21260;34.984;32.490;2022-11-20T06:03:43;3.80;;;1.77;;
35074;SDS011;21260;34.984;32.490;2022-11-20T06:06:12;3.40;;;2.00;;
35074;SDS011;21260;34.984;32.490;2022-11-20T06:08:40;3.53;;;1.70;;
35074;SDS011;21260;34.984;32.490;2022-11-20T06:11:07;2.10;;;1.50;;
35074;SDS011;21260;34.984;32.490;2022-11-20T06:13:36;6.23;;;1.60;;
35074;SDS011;21260;34.984;32.490;2022-11-20T06:16:03;2.87;;;1.67;;
35074;SDS011;21260;34.984;32.490;2022-11-20T06:18:30;5.03;;;1.90;;
35074;SDS011;21260;34.984;32.490;2022-11-20T06:21:04;4.13;;;1.80;;
35074;SDS011;21260;34.984;32.490;2022-11-20T06:23:37;4.20;;;2.27;;
35074;SDS011;21260;34.984;32.490;2022-11-20T06:26:06;3.50;;;1.60;;
35074;SDS011;21260;34.984;32.490;2022-11-20T06:28:36;4.80;;;2.00;;
35074;SDS011;21260;34.984;32.490;2022-11-20T06:31:04;2.43;;;1.70;;
35074;SDS011;21260;34.984;32.490;2022-11-20T06:33:32;2.77;;;1.67;;
35074;SDS011;21260;34.984;32.490;2022-11-20T06:35:59;9.47;;;1.97;;
35074;SDS011;21260;34.984;32.490;2022-11-20T06:38:27;2.77;;;1.70;;
35074;SDS011;21260;34.984;32.490;2022-11-20T06:40:54;4.17;;;1.70;;
35074;SDS011;21260;34.984;32.490;2022-11-20T06:43:21;2.70;;;1.90;;
35074;SDS011;21260;34.984;32.490;2022-11-20T06:45:53;4.53;;;2.37;;
35074;SDS011;21260;34.984;32.490;2022-11-20T06:48:21;2.40;;;1.77;;
35074;SDS011;21260;34.984;32.490;2022-11-20T06:50:49;3.67;;;2.20;;
35074;SDS011;21260;34.984;32.490;2022-11-20T06:53:16;6.33;;;2.47;;
35074;SDS011;21260;34.984;32.490;2022-11-20T06:55:43;6.33;;;2.30;;
35074;SDS011;21260;34.984;32.490;2022-11-20T06:58:13;4.07;;;1.90;;
35074;SDS011;21260;34.984;32.490;2022-11-20T07:00:41;3.50;;;1.83;;
35074;SDS011;21260;34.984;32.490;2022-11-20T07:03:09;5.33;;;2.13;;
35074;SDS011;21260;34.984;32.490;2022-11-20T07:05:37;3.73;;;2.47;;
35074;SDS011;21260;34.984;32.490;2022-11-20T07:08:05;3.63;;;2.00;;
35074;SDS011;21260;34.984;32.490;2022-11-20T07:10:31;5.17;;;2.10;;
35074;SDS011;21260;34.984;32.490;2022-11-20T07:12:58;3.53;;;1.50;;
35074;SDS011;21260;34.984;32.490;2022-11-20T07:15:24;4.93;;;1.80;;
35074;SDS011;21260;34.984;32.490;2022-11-20T07:17:51;4.07;;;1.70;;
35074;SDS011;21260;34.984;32.490;2022-11-20T07:20:17;3.70;;;1.80;;
35074;SDS011;21260;34.984;32.490;2022-11-20T07:22:45;4.50;;;1.70;;
35074;SDS011;21260;34.984;32.490;2022-11-20T07:25:14;5.10;;;1.70;;
35074;SDS011;21260;34.984;32.490;2022-11-20T07:27:40;5.77;;;1.70;;
35074;SDS011;21260;34.984;32.490;2022-11-20T07:30:08;3.77;;;1.73;;
35074;SDS011;21260;34.984;32.490;2022-11-20T07:32:35;5.47;;;1.70;;
35074;SDS011;21260;34.984;32.490;2022-11-20T07:35:01;4.43;;;1.83;;
35074;SDS011;21260;34.984;32.490;2022-11-20T07:37:27;7.57;;;1.70;;
35074;SDS011;21260;34.984;32.490;2022-11-20T07:39:54;4.00;;;1.60;;
35074;SDS011;21260;34.984;32.490;2022-11-20T07:42:21;3.53;;;1.60;;
35074;SDS011;21260;34.984;32.490;2022-11-20T07:44:47;2.87;;;1.70;;
35074;SDS011;21260;34.984;32.490;2022-11-20T07:47:13;8.93;;;1.53;;
35074;SDS011;21260;34.984;32.490;2022-11-20T07:49:39;5.30;;;1.80;;
35074;SDS011;21260;34.984;32.490;2022-11-20T07:52:06;7.40;;;1.77;;
35074;SDS011;21260;34.984;32.490;2022-11-20T07:54:36;1.83;;;1.40;;
35074;SDS011;21260;34.984;32.490;2022-11-20T07:57:03;5.97;;;1.90;;
35074;SDS011;21260;34.984;32.490;2022-11-20T07:59:30;3.87;;;1.60;;
35074;SDS011;21260;34.984;32.490;2022-11-20T08:01:56;7.03;;;1.73;;
35074;SDS011;21260;34.984;32.490;2022-11-20T08:04:23;10.60;;;1.83;;
35074;SDS011;21260;34.984;32.490;2022-11-20T08:06:51;6.80;;;1.90;;
35074;SDS011;21260;34.984;32.490;2022-11-20T08:09:19;2.90;;;1.60;;
35074;SDS011;21260;34.984;32.490;2022-11-20T08:11:46;5.03;;;2.20;;
35074;SDS011;21260;34.984;32.490;2022-11-20T08:14:31;6.07;;;1.40;;
35074;SDS011;21260;34.984;32.490;2022-11-20T08:16:57;8.87;;;2.00;;
35074;SDS011;21260;34.984;32.490;2022-11-20T08:19:24;2.87;;;1.60;;
35074;SDS011;21260;34.984;32.490;2022-11-20T08:21:50;5.83;;;2.30;;
35074;SDS011;21260;34.984;32.490;2022-11-20T08:24:16;5.33;;;2.90;;
35074;SDS011;21260;34.984;32.490;2022-11-20T08:26:43;11.17;;;3.63;;
35074;SDS011;21260;34.984;32.490;2022-11-20T08:29:09;21.23;;;3.27;;
35074;SDS011;21260;34.984;32.490;2022-11-20T08:31:36;9.33;;;2.40;;
35074;SDS011;21260;34.984;32.490;2022-11-20T08:34:03;6.40;;;2.57;;
35074;SDS011;21260;34.984;32.490;2022-11-20T08:36:33;4.17;;;2.20;;
35074;SDS011;21260;34.984;32.490;2022-11-20T08:39:02;7.30;;;2.40;;
35074;SDS011;21260;34.984;32.490;2022-11-20T08:41:30;5.70;;;2.37;;
35074;SDS011;21260;34.984;32.490;2022-11-20T08:44:06;6.17;;;1.97;;
35074;SDS011;21260;34.984;32.490;2022-11-20T08:46:37;6.00;;;1.80;;
35074;SDS011;21260;34.984;32.490;2022-11-20T08:49:08;3.67;;;1.80;;
35074;SDS011;21260;34.984;32.490;2022-11-20T08:51:37;7.40;;;1.83;;
35074;SDS011;21260;34.984;32.490;2022-11-20T08:54:05;4.53;;;1.77;;
35074;SDS011;21260;34.984;32.490;2022-11-20T08:56:32;7.97;;;2.50;;
35074;SDS011;21260;34.984;32.490;2022-11-20T08:59:00;7.57;;;2.43;;
35074;SDS011;21260;34.984;32.490;2022-11-20T09:01:27;8.57;;;3.30;;
35074;SDS011;21260;34.984;32.490;2022-11-20T09:03:57;8.13;;;3.37;;
35074;SDS011;21260;34.984;32.490;2022-11-20T09:06:25;6.30;;;2.93;;
35074;SDS011;21260;34.984;32.490;2022-11-20T09:08:52;12.13;;;2.83;;
35074;SDS011;21260;34.984;32.490;2022-11-20T09:11:23;7.23;;;3.23;;
35074;SDS011;21260;34.984;32.490;2022-11-20T09:13:50;7.87;;;2.50;;
35074;SDS011;21260;34.984;32.490;2022-11-20T09:16:16;5.30;;;2.23;;
35074;SDS011;21260;34.984;32.490;2022-11-20T09:18:42;5.37;;;2.00;;
35074;SDS011;21260;34.984;32.490;2022-11-20T09:21:13;6.13;;;2.50;;
35074;SDS011;21260;34.984;32.490;2022-11-20T09:23:41;7.97;;;4.17;;
35074;SDS011;21260;34.984;32.490;2022-11-20T09:26:11;4.00;;;2.50;;
35074;SDS011;21260;34.984;32.490;2022-11-20T09:28:39;14.37;;;2.37;;
35074;SDS011;21260;34.984;32.490;2022-11-20T09:31:13;7.77;;;2.57;;
35074;SDS011;21260;34.984;32.490;2022-11-20T09:33:51;3.37;;;2.00;;
35074;SDS011;21260;34.984;32.490;2022-11-20T09:36:17;5.30;;;1.60;;
35074;SDS011;21260;34.984;32.490;2022-11-20T09:38:44;3.70;;;1.90;;
35074;SDS011;21260;34.984;32.490;2022-11-20T09:47:11;9.53;;;2.10;;
35074;SDS011;21260;34.984;32.490;2022-11-20T09:52:59;5.33;;;2.07;;
35074;SDS011;21260;34.984;32.490;2022-11-20T09:55:56;3.13;;;1.80;;
35074;SDS011;21260;34.984;32.490;2022-11-20T09:58:35;8.57;;;2.30;;
35074;SDS011;21260;34.984;32.490;2022-11-20T10:01:13;5.33;;;2.20;;
35074;SDS011;21260;34.984;32.490;2022-11-20T10:23:59;13.07;;;2.20;;
35074;SDS011;21260;34.984;32.490;2022-11-20T10:30:17;4.80;;;2.43;;
35074;SDS011;21260;34.984;32.490;2022-11-20T10:32:50;8.70;;;2.07;;
35074;SDS011;21260;34.984;32.490;2022-11-20T10:38:26;6.60;;;2.00;;
35074;SDS011;21260;34.984;32.490;2022-11-20T10:41:08;8.57;;;2.30;;
35074;SDS011;21260;34.984;32.490;2022-11-20T10:44:33;7.10;;;2.23;;
35074;SDS011;21260;34.984;32.490;2022-11-20T10:47:04;6.13;;;2.13;;
35074;SDS011;21260;34.984;32.490;2022-11-20T10:49:36;8.50;;;2.42;;
35074;SDS011;21260;34.984;32.490;2022-11-20T11:01:19;9.70;;;2.17;;
35074;SDS011;21260;34.984;32.490;2022-11-20T11:03:52;11.88;;;2.28;;
35074;SDS011;21260;34.984;32.490;2022-11-20T11:06:42;5.85;;;2.05;;
35074;SDS011;21260;34.984;32.490;2022-11-20T11:09:22;8.55;;;2.20;;
35074;SDS011;21260;34.984;32.490;2022-11-20T11:11:59;10.38;;;2.42;;
35074;SDS011;21260;34.984;32.490;2022-11-20T11:14:27;4.90;;;1.80;;
35074;SDS011;21260;34.984;32.490;2022-11-20T11:16:55;5.38;;;1.92;;
35074;SDS011;21260;34.984;32.490;2022-11-20T11:19:23;4.38;;;1.88;;
35074;SDS011;21260;34.984;32.490;2022-11-20T11:21:56;7.50;;;2.13;;
35074;SDS011;21260;34.984;32.490;2022-11-20T11:24:27;8.30;;;2.30;;
35074;SDS011;21260;34.984;32.490;2022-11-20T11:26:59;10.27;;;1.97;;
35074;SDS011;21260;34.984;32.490;2022-11-20T11:29:32;13.30;;;2.20;;
35074;SDS011;21260;34.984;32.490;2022-11-20T11:32:11;6.78;;;1.88;;
35074;SDS011;21260;34.984;32.490;2022-11-20T11:35:01;3.30;;;1.88;;
35074;SDS011;21260;34.984;32.490;2022-11-20T11:37:43;4.23;;;1.80;;
35074;SDS011;21260;34.984;32.490;2022-11-20T11:40:13;4.32;;;1.98;;
35074;SDS011;21260;34.984;32.490;2022-11-20T11:42:43;4.10;;;1.80;;
35074;SDS011;21260;34.984;32.490;2022-11-20T11:45:24;4.03;;;2.08;;
35074;SDS011;21260;34.984;32.490;2022-11-20T11:47:51;6.65;;;2.25;;
35074;SDS011;21260;34.984;32.490;2022-11-20T11:50:23;3.30;;;2.05;;
35074;SDS011;21260;34.984;32.490;2022-11-20T12:06:57;4.90;;;1.70;;
35074;SDS011;21260;34.984;32.490;2022-11-20T12:09:34;7.27;;;2.43;;
35074;SDS011;21260;34.984;32.490;2022-11-20T12:12:12;7.03;;;1.60;;
35074;SDS011;21260;34.984;32.490;2022-11-20T12:14:48;8.50;;;1.77;;
35074;SDS011;21260;34.984;32.490;2022-11-20T12:17:19;5.22;;;1.92;;
35074;SDS011;21260;34.984;32.490;2022-11-20T12:19:46;4.13;;;1.80;;
35074;SDS011;21260;34.984;32.490;2022-11-20T12:25:12;5.40;;;2.50;;
35074;SDS011;21260;34.984;32.490;2022-11-20T12:30:49;8.00;;;3.70;;
35074;SDS011;21260;34.984;32.490;2022-11-20T12:37:37;7.63;;;3.03;;
35074;SDS011;21260;34.984;32.490;2022-11-20T12:39:56;15.17;;;3.67;;
35074;SDS011;21260;34.984;32.490;2022-11-20T12:42:55;6.57;;;2.90;;
35074;SDS011;21260;34.984;32.490;2022-11-20T12:46:08;6.37;;;2.70;;
35074;SDS011;21260;34.984;32.490;2022-11-20T12:54:44;5.20;;;2.23;;
35074;SDS011;21260;34.984;32.490;2022-11-20T13:00:23;4.90;;;2.47;;
35074;SDS011;21260;34.984;32.490;2022-11-20T13:03:09;4.93;;;2.40;;
35074;SDS011;21260;34.984;32.490;2022-11-20T13:08:48;4.83;;;1.93;;
35074;SDS011;21260;34.984;32.490;2022-11-20T13:20:12;4.00;;;1.90;;
35074;SDS011;21260;34.984;32.490;2022-11-20T13:22:45;4.60;;;2.20;;
35074;SDS011;21260;34.984;32.490;2022-11-20T13:25:30;13.23;;;2.13;;
35074;SDS011;21260;34.984;32.490;2022-11-20T13:28:03;8.73;;;2.20;;
35074;SDS011;21260;34.984;32.490;2022-11-20T13:30:55;3.57;;;2.30;;
35074;SDS011;21260;34.984;32.490;2022-11-20T13:33:30;3.27;;;1.97;;
35074;SDS011;21260;34.984;32.490;2022-11-20T13:36:04;4.53;;;2.37;;
35074;SDS011;21260;34.984;32.490;2022-11-20T13:38:48;5.67;;;2.27;;
35074;SDS011;21260;34.984;32.490;2022-11-20T13:41:34;6.33;;;2.77;;
35074;SDS011;21260;34.984;32.490;2022-11-20T13:44:10;4.90;;;2.53;;
35074;SDS011;21260;34.984;32.490;2022-11-20T13:47:17;5.20;;;2.53;;
35074;SDS011;21260;34.984;32.490;2022-11-20T13:49:51;7.93;;;2.40;;
35074;SDS011;21260;34.984;32.490;2022-11-20T13:58:24;6.30;;;2.30;;
35074;SDS011;21260;34.984;32.490;2022-11-20T14:01:16;6.10;;;2.73;;
35074;SDS011;21260;34.984;32.490;2022-11-20T14:03:49;4.93;;;2.50;;
35074;SDS011;21260;34.984;32.490;2022-11-20T14:06:25;4.60;;;2.53;;
35074;SDS011;21260;34.984;32.490;2022-11-20T14:08:59;4.23;;;2.60;;
35074;SDS011;21260;34.984;32.490;2022-11-20T14:11:29;5.93;;;2.57;;
35074;SDS011;21260;34.984;32.490;2022-11-20T14:14:00;6.37;;;2.53;;
35074;SDS011;21260;34.984;32.490;2022-11-20T14:16:47;4.83;;;2.77;;
35074;SDS011;21260;34.984;32.490;2022-11-20T14:19:24;5.40;;;2.60;;
35074;SDS011;21260;34.984;32.490;2022-11-20T14:22:16;5.23;;;2.50;;
35074;SDS011;21260;34.984;32.490;2022-11-20T14:25:04;4.83;;;2.60;;
35074;SDS011;21260;34.984;32.490;2022-11-20T14:27:50;4.72;;;2.58;;
35074;SDS011;21260;34.984;32.490;2022-11-20T14:30:23;7.73;;;2.60;;
35074;SDS011;21260;34.984;32.490;2022-11-20T14:33:12;4.97;;;2.67;;
35074;SDS011;21260;34.984;32.490;2022-11-20T14:35:48;8.43;;;3.00;;
35074;SDS011;21260;34.984;32.490;2022-11-20T14:38:18;3.97;;;3.03;;
35074;SDS011;21260;34.984;32.490;2022-11-20T14:40:54;5.73;;;3.53;;
35074;SDS011;21260;34.984;32.490;2022-11-20T14:43:44;7.80;;;3.00;;
35074;SDS011;21260;34.984;32.490;2022-11-20T14:46:24;6.87;;;2.60;;
35074;SDS011;21260;34.984;32.490;2022-11-20T14:48:56;5.50;;;2.23;;
35074;SDS011;21260;34.984;32.490;2022-11-20T14:51:30;9.63;;;2.07;;
35074;SDS011;21260;34.984;32.490;2022-11-20T14:54:16;5.43;;;2.10;;
35074;SDS011;21260;34.984;32.490;2022-11-20T14:56:53;3.70;;;1.70;;
35074;SDS011;21260;34.984;32.490;2022-11-20T14:59:26;3.33;;;1.70;;
35074;SDS011;21260;34.984;32.490;2022-11-20T15:01:59;4.80;;;1.80;;
35074;SDS011;21260;34.984;32.490;2022-11-20T15:04:46;4.73;;;1.80;;
35074;SDS011;21260;34.984;32.490;2022-11-20T15:07:23;11.00;;;1.90;;
35074;SDS011;21260;34.984;32.490;2022-11-20T15:10:09;4.63;;;1.70;;
35074;SDS011;21260;34.984;32.490;2022-11-20T15:12:54;2.43;;;1.53;;
35074;SDS011;21260;34.984;32.490;2022-11-20T15:18:29;8.07;;;1.80;;
35074;SDS011;21260;34.984;32.490;2022-11-20T15:21:10;6.30;;;2.10;;
35074;SDS011;21260;34.984;32.490;2022-11-20T15:23:42;8.27;;;2.00;;
35074;SDS011;21260;34.984;32.490;2022-11-20T15:26:11;4.50;;;2.10;;
35074;SDS011;21260;34.984;32.490;2022-11-20T15:28:47;6.20;;;2.17;;
35074;SDS011;21260;34.984;32.490;2022-11-20T15:31:20;5.13;;;2.17;;
35074;SDS011;21260;34.984;32.490;2022-11-20T15:33:49;3.60;;;2.20;;
35074;SDS011;21260;34.984;32.490;2022-11-20T15:36:16;4.97;;;2.20;;
35074;SDS011;21260;34.984;32.490;2022-11-20T15:38:43;4.63;;;2.27;;
35074;SDS011;21260;34.984;32.490;2022-11-20T15:41:12;5.07;;;2.40;;
35074;SDS011;21260;34.984;32.490;2022-11-20T15:43:38;6.83;;;2.33;;
35074;SDS011;21260;34.984;32.490;2022-11-20T15:46:06;2.97;;;2.20;;
35074;SDS011;21260;34.984;32.490;2022-11-20T15:48:44;3.47;;;2.03;;
35074;SDS011;21260;34.984;32.490;2022-11-20T15:51:30;5.93;;;1.90;;
35074;SDS011;21260;34.984;32.490;2022-11-20T15:54:17;4.53;;;2.00;;
35074;SDS011;21260;34.984;32.490;2022-11-20T15:56:52;6.87;;;2.40;;
35074;SDS011;21260;34.984;32.490;2022-11-20T15:59:22;4.70;;;2.13;;
35074;SDS011;21260;34.984;32.490;2022-11-20T16:01:48;6.27;;;1.90;;
35074;SDS011;21260;34.984;32.490;2022-11-20T16:04:17;2.60;;;1.97;;
35074;SDS011;21260;34.984;32.490;2022-11-20T16:06:43;4.27;;;2.03;;
35074;SDS011;21260;34.984;32.490;2022-11-20T16:09:13;2.93;;;2.20;;
35074;SDS011;21260;34.984;32.490;2022-11-20T16:11:40;5.07;;;2.23;;
35074;SDS011;21260;34.984;32.490;2022-11-20T16:14:08;6.20;;;2.47;;
35074;SDS011;21260;34.984;32.490;2022-11-20T16:16:54;2.77;;;1.90;;
35074;SDS011;21260;34.984;32.490;2022-11-20T16:19:21;4.47;;;2.07;;
35074;SDS011;21260;34.984;32.490;2022-11-20T16:21:47;5.47;;;2.00;;
35074;SDS011;21260;34.984;32.490;2022-11-20T16:24:14;6.37;;;2.50;;
35074;SDS011;21260;34.984;32.490;2022-11-20T16:26:41;3.97;;;2.30;;
35074;SDS011;21260;34.984;32.490;2022-11-20T16:29:08;3.00;;;2.37;;
35074;SDS011;21260;34.984;32.490;2022-11-20T16:31:35;6.77;;;2.37;;
35074;SDS011;21260;34.984;32.490;2022-11-20T16:34:03;8.27;;;2.63;;
35074;SDS011;21260;34.984;32.490;2022-11-20T16:36:32;7.53;;;3.17;;
35074;SDS011;21260;34.984;32.490;2022-11-20T16:39:00;8.00;;;3.50;;
35074;SDS011;21260;34.984;32.490;2022-11-20T16:41:30;9.77;;;4.97;;
35074;SDS011;21260;34.984;32.490;2022-11-20T16:43:59;10.87;;;4.80;;
35074;SDS011;21260;34.984;32.490;2022-11-20T16:46:31;8.10;;;4.60;;
35074;SDS011;21260;34.984;32.490;2022-11-20T16:48:58;13.43;;;6.17;;
35074;SDS011;21260;34.984;32.490;2022-11-20T16:51:28;16.23;;;8.43;;